Create Tblcommutelog Verified Points Advance Search
| # | Trip ID | Id Commuter | Trip Date | Trip Num | Current Lat | Current Lng | Delta Distance | Current Time | Activity | Activity Confidence | Current Speed | |
|---|---|---|---|---|---|---|---|---|---|---|---|---|
| 73081 | 251013_112979_16515973_0626 | 112979 | (not set) | (not set) | 38.847473355796 | -77.048544557748 | 2.4652 | 2025-10-13 06:33:33 | unknown | 100 | 8.9899594982431 | |
| 73082 | 251013_112979_16515973_0626 | 112979 | (not set) | (not set) | 38.856513408716 | -77.046779954509 | 3.0978 | 2025-10-13 06:34:22 | unknown | 100 | 9.7499262385223 | |
| 73083 | 251013_788220_16489920_0627 | 788220 | (not set) | (not set) | 38.811207849834 | -77.487160141921 | 5.9109 | 2025-10-13 06:35:14 | in_vehicle | 100 | 15.552495820183 | |
| 73084 | 251013_112979_16515973_0626 | 112979 | (not set) | (not set) | 38.872765323221 | -77.04402384532 | 4.3971 | 2025-10-13 06:36:04 | unknown | 100 | 6.5223027886309 | |
| 73085 | 251013_787384_6461772_0631 | 787384 | (not set) | (not set) | 39.197509973346 | -77.239814652202 | 0.0557 | 2025-10-13 06:37:10 | in_vehicle | 100 | 1.8552129247991 | |
| 73086 | 251013_788220_16489920_0627 | 788220 | (not set) | (not set) | 38.839292061953 | -77.444952648152 | 8.9684 | 2025-10-13 06:37:40 | in_vehicle | 100 | 14.452779243073 | |
| 73087 | 251013_787384_6461772_0631 | 787384 | (not set) | (not set) | 39.198426781349 | -77.243872498921 | 0.2932 | 2025-10-13 06:38:08 | in_vehicle | 100 | 5.789158403891 | |
| 73088 | 251013_769092_16489920_0631 | 769092 | (not set) | (not set) | 38.848542829456 | -77.420422872501 | 8.8852 | 2025-10-13 06:38:54 | in_vehicle | 100 | 15.494380716515 | |
| 73089 | 251013_787384_6461772_0631 | 787384 | (not set) | (not set) | 39.198365417534 | -77.2445885806 | 0.3319 | 2025-10-13 06:39:39 | in_vehicle | 100 | 0 | |
| 73090 | 251013_787384_6461772_0631 | 787384 | (not set) | (not set) | 39.198365417534 | -77.2445885806 | 0.3319 | 2025-10-13 06:39:39 | in_vehicle | 100 | 0 | |
| 73091 | 251013_788220_16489920_0627 | 788220 | (not set) | (not set) | 38.854302057042 | -77.388748657368 | 12.2386 | 2025-10-13 06:40:15 | in_vehicle | 100 | 16.39292962708 | |
| 73092 | 251013_788220_16489920_0627 | 788220 | (not set) | (not set) | 38.856448656496 | -77.377025693316 | 12.8881 | 2025-10-13 06:40:44 | in_vehicle | 100 | 16.03976861248 | |
| 73093 | 251013_788220_16489920_0627 | 788220 | (not set) | (not set) | 38.859501200525 | -77.360352532284 | 13.8117 | 2025-10-13 06:41:27 | in_vehicle | 100 | 14.493012776382 | |
| 73094 | 251013_787384_6461772_0631 | 787384 | (not set) | (not set) | 39.187517435642 | -77.24057333115 | 1.1254 | 2025-10-13 06:42:03 | in_vehicle | 100 | 7.6980160397686 | |
| 73095 | 251013_787384_6461772_0631 | 787384 | (not set) | (not set) | 39.1820984607 | -77.238561818267 | 1.5145 | 2025-10-13 06:42:43 | in_vehicle | 100 | 6.2361976628788 | |
| 73096 | 251013_769092_16489920_0631 | 769092 | (not set) | (not set) | 38.866908196295 | -77.318760015807 | 14.5135 | 2025-10-13 06:43:17 | in_vehicle | 100 | 15.494380716515 | |
| 73097 | 251013_787384_6461772_0631 | 787384 | (not set) | (not set) | 39.173088806584 | -77.236933927872 | 2.1519 | 2025-10-13 06:43:49 | in_vehicle | 100 | 7.2688583511404 | |
| 73098 | 251013_112979_16515973_0626 | 112979 | (not set) | (not set) | 38.880216792652 | -77.125615142135 | 10.9289 | 2025-10-13 06:44:24 | unknown | 100 | 12.074530385258 | |
| 73099 | 251013_787384_6461772_0631 | 787384 | (not set) | (not set) | 39.165927387048 | -77.22837966846 | 2.8622 | 2025-10-13 06:44:56 | in_vehicle | 100 | 7.5415522991229 | |
| 73100 | 251013_112979_16515973_0626 | 112979 | (not set) | (not set) | 38.882076068181 | -77.144770816945 | 12.0019 | 2025-10-13 06:45:26 | unknown | 100 | 12.780852414459 |